sensor_id;sensor_type;location;lat;lon;timestamp;pressure;altitude;pressure_sealevel;temperature;humidity
72896;BME280;61036;53.224;6.554;2022-08-19T00:01:44;101415.31;;;15.47;100.00
72896;BME280;61036;53.224;6.554;2022-08-19T00:04:12;101412.19;;;15.52;100.00
72896;BME280;61036;53.224;6.554;2022-08-19T00:06:39;101416.50;;;15.54;100.00
72896;BME280;61036;53.224;6.554;2022-08-19T00:09:08;101422.06;;;15.53;100.00
72896;BME280;61036;53.224;6.554;2022-08-19T00:11:34;101413.59;;;15.46;100.00
72896;BME280;61036;53.224;6.554;2022-08-19T00:14:01;101418.28;;;15.44;100.00
72896;BME280;61036;53.224;6.554;2022-08-19T00:16:27;101422.06;;;15.53;100.00
72896;BME280;61036;53.224;6.554;2022-08-19T00:18:54;101409.41;;;15.42;100.00
72896;BME280;61036;53.224;6.554;2022-08-19T00:21:20;101420.69;;;15.38;100.00
72896;BME280;61036;53.224;6.554;2022-08-19T00:23:47;101422.50;;;15.37;100.00
72896;BME280;61036;53.224;6.554;2022-08-19T00:26:12;101426.38;;;15.35;100.00
72896;BME280;61036;53.224;6.554;2022-08-19T00:28:40;101421.59;;;15.48;100.00
72896;BME280;61036;53.224;6.554;2022-08-19T00:31:08;101411.84;;;15.45;100.00
72896;BME280;61036;53.224;6.554;2022-08-19T00:33:37;101416.16;;;15.48;100.00
72896;BME280;61036;53.224;6.554;2022-08-19T00:36:05;101410.47;;;15.51;100.00
72896;BME280;61036;53.224;6.554;2022-08-19T00:38:32;101405.44;;;15.46;100.00
72896;BME280;61036;53.224;6.554;2022-08-19T00:40:59;101407.22;;;15.36;100.00
72896;BME280;61036;53.224;6.554;2022-08-19T00:43:26;101404.50;;;15.36;100.00
72896;BME280;61036;53.224;6.554;2022-08-19T00:45:54;101404.69;;;15.23;100.00
72896;BME280;61036;53.224;6.554;2022-08-19T00:48:22;101397.94;;;15.39;100.00
72896;BME280;61036;53.224;6.554;2022-08-19T00:50:50;101393.31;;;15.29;100.00
72896;BME280;61036;53.224;6.554;2022-08-19T00:53:22;101403.09;;;15.21;100.00
72896;BME280;61036;53.224;6.554;2022-08-19T00:55:50;101398.47;;;15.12;100.00
72896;BME280;61036;53.224;6.554;2022-08-19T00:58:19;101397.13;;;15.06;100.00
72896;BME280;61036;53.224;6.554;2022-08-19T01:00:46;101398.94;;;15.17;100.00
72896;BME280;61036;53.224;6.554;2022-08-19T01:03:15;101394.72;;;15.13;100.00
72896;BME280;61036;53.224;6.554;2022-08-19T01:05:43;101400.16;;;15.13;100.00
72896;BME280;61036;53.224;6.554;2022-08-19T01:08:09;101394.22;;;15.19;100.00
72896;BME280;61036;53.224;6.554;2022-08-19T01:10:56;101389.03;;;15.16;100.00
72896;BME280;61036;53.224;6.554;2022-08-19T01:13:25;101391.22;;;15.22;100.00
72896;BME280;61036;53.224;6.554;2022-08-19T01:15:55;101383.75;;;15.14;100.00
72896;BME280;61036;53.224;6.554;2022-08-19T01:18:25;101382.16;;;15.32;100.00
72896;BME280;61036;53.224;6.554;2022-08-19T01:20:54;101385.94;;;15.41;100.00
72896;BME280;61036;53.224;6.554;2022-08-19T01:23:21;101381.25;;;15.22;100.00
72896;BME280;61036;53.224;6.554;2022-08-19T01:26:13;101375.81;;;15.22;100.00
72896;BME280;61036;53.224;6.554;2022-08-19T01:28:40;101379.13;;;15.26;100.00
72896;BME280;61036;53.224;6.554;2022-08-19T01:31:10;101388.44;;;15.12;100.00
72896;BME280;61036;53.224;6.554;2022-08-19T01:33:37;101395.47;;;15.15;100.00
72896;BME280;61036;53.224;6.554;2022-08-19T01:36:09;101385.13;;;15.08;100.00
72896;BME280;61036;53.224;6.554;2022-08-19T01:38:37;101386.13;;;15.07;100.00
72896;BME280;61036;53.224;6.554;2022-08-19T01:41:04;101387.06;;;15.18;100.00
72896;BME280;61036;53.224;6.554;2022-08-19T01:43:33;101392.16;;;15.11;100.00
72896;BME280;61036;53.224;6.554;2022-08-19T01:45:59;101383.88;;;15.13;100.00
72896;BME280;61036;53.224;6.554;2022-08-19T01:48:26;101384.88;;;15.12;100.00
72896;BME280;61036;53.224;6.554;2022-08-19T01:50:54;101383.59;;;15.16;100.00
72896;BME280;61036;53.224;6.554;2022-08-19T01:53:23;101376.97;;;15.08;100.00
72896;BME280;61036;53.224;6.554;2022-08-19T01:55:49;101369.06;;;15.17;100.00
72896;BME280;61036;53.224;6.554;2022-08-19T01:58:19;101383.75;;;15.14;100.00
72896;BME280;61036;53.224;6.554;2022-08-19T02:00:46;101386.84;;;15.09;100.00
72896;BME280;61036;53.224;6.554;2022-08-19T02:03:13;101383.16;;;15.11;100.00
72896;BME280;61036;53.224;6.554;2022-08-19T02:05:40;101384.59;;;15.15;100.00
72896;BME280;61036;53.224;6.554;2022-08-19T02:08:07;101392.59;;;15.16;100.00
72896;BME280;61036;53.224;6.554;2022-08-19T02:10:33;101393.34;;;15.18;100.00
72896;BME280;61036;53.224;6.554;2022-08-19T02:13:01;101392.59;;;15.16;100.00
72896;BME280;61036;53.224;6.554;2022-08-19T02:15:28;101391.13;;;15.23;100.00
72896;BME280;61036;53.224;6.554;2022-08-19T02:17:56;101386.53;;;15.24;100.00
72896;BME280;61036;53.224;6.554;2022-08-19T02:20:22;101391.22;;;15.22;100.00
72896;BME280;61036;53.224;6.554;2022-08-19T02:22:48;101394.09;;;15.20;100.00
72896;BME280;61036;53.224;6.554;2022-08-19T02:25:14;101404.22;;;15.18;100.00
72896;BME280;61036;53.224;6.554;2022-08-19T02:27:40;101395.53;;;15.24;100.00
72896;BME280;61036;53.224;6.554;2022-08-19T02:30:11;101384.09;;;15.21;100.00
72896;BME280;61036;53.224;6.554;2022-08-19T02:32:37;101392.59;;;15.16;100.00
72896;BME280;61036;53.224;6.554;2022-08-19T02:35:03;101386.22;;;15.17;100.00
72896;BME280;61036;53.224;6.554;2022-08-19T02:37:29;101392.16;;;15.11;100.00
72896;BME280;61036;53.224;6.554;2022-08-19T02:40:13;101394.63;;;15.14;100.00
72896;BME280;61036;53.224;6.554;2022-08-19T02:42:42;101397.00;;;15.07;100.00
72896;BME280;61036;53.224;6.554;2022-08-19T02:45:12;101400.56;;;15.08;100.00
72896;BME280;61036;53.224;6.554;2022-08-19T02:47:40;101405.25;;;15.06;100.00
72896;BME280;61036;53.224;6.554;2022-08-19T02:50:09;101407.59;;;15.11;100.00
72896;BME280;61036;53.224;6.554;2022-08-19T02:52:36;101406.59;;;15.12;100.00
72896;BME280;61036;53.224;6.554;2022-08-19T02:55:02;101406.00;;;15.08;100.00
72896;BME280;61036;53.224;6.554;2022-08-19T02:57:30;101400.56;;;15.08;100.00
72896;BME280;61036;53.224;6.554;2022-08-19T03:00:00;101390.25;;;15.02;100.00
72896;BME280;61036;53.224;6.554;2022-08-19T03:02:29;101388.03;;;14.96;100.00
72896;BME280;61036;53.224;6.554;2022-08-19T03:04:56;101392.94;;;15.02;100.00
72896;BME280;61036;53.224;6.554;2022-08-19T03:07:22;101398.38;;;15.02;100.00
72896;BME280;61036;53.224;6.554;2022-08-19T03:09:49;101400.09;;;15.03;100.00
72896;BME280;61036;53.224;6.554;2022-08-19T03:12:15;101396.13;;;15.07;100.00
72896;BME280;61036;53.224;6.554;2022-08-19T03:14:42;101394.81;;;15.01;100.00
72896;BME280;61036;53.224;6.554;2022-08-19T03:17:07;101386.78;;;15.00;100.00
72896;BME280;61036;53.224;6.554;2022-08-19T03:19:35;101384.59;;;14.94;100.00
72896;BME280;61036;53.224;6.554;2022-08-19T03:22:02;101383.72;;;14.93;100.00
72896;BME280;61036;53.224;6.554;2022-08-19T03:24:29;101377.28;;;14.94;100.00
72896;BME280;61036;53.224;6.554;2022-08-19T03:26:56;101376.19;;;14.97;100.00
72896;BME280;61036;53.224;6.554;2022-08-19T03:29:29;101375.91;;;15.00;100.00
72896;BME280;61036;53.224;6.554;2022-08-19T03:31:57;101376.31;;;14.95;100.00
72896;BME280;61036;53.224;6.554;2022-08-19T03:34:26;101376.97;;;14.88;100.00
72896;BME280;61036;53.224;6.554;2022-08-19T03:36:56;101371.16;;;14.92;100.00
72896;BME280;61036;53.224;6.554;2022-08-19T03:39:23;101370.53;;;14.89;100.00
72896;BME280;61036;53.224;6.554;2022-08-19T03:41:50;101371.16;;;14.92;100.00
72896;BME280;61036;53.224;6.554;2022-08-19T03:44:21;101379.91;;;14.96;100.00
72896;BME280;61036;53.224;6.554;2022-08-19T03:46:53;101376.38;;;15.05;100.00
72896;BME280;61036;53.224;6.554;2022-08-19T03:49:23;101382.94;;;15.02;100.00
72896;BME280;61036;53.224;6.554;2022-08-19T03:51:49;101390.53;;;14.88;100.00
72896;BME280;61036;53.224;6.554;2022-08-19T03:54:18;101391.72;;;14.95;100.00
72896;BME280;61036;53.224;6.554;2022-08-19T03:56:46;101391.72;;;14.95;100.00
72896;BME280;61036;53.224;6.554;2022-08-19T03:59:18;101393.06;;;15.00;100.00
72896;BME280;61036;53.224;6.554;2022-08-19T04:01:45;101389.75;;;14.97;100.00
72896;BME280;61036;53.224;6.554;2022-08-19T04:04:12;101378.88;;;14.97;100.00
72896;BME280;61036;53.224;6.554;2022-08-19T04:06:40;101388.41;;;14.91;100.00
72896;BME280;61036;53.224;6.554;2022-08-19T04:09:08;101390.28;;;14.91;100.00
72896;BME280;61036;53.224;6.554;2022-08-19T04:11:38;101387.03;;;14.97;100.00
72896;BME280;61036;53.224;6.554;2022-08-19T04:14:10;101383.25;;;14.88;100.00
72896;BME280;61036;53.224;6.554;2022-08-19T04:16:37;101379.41;;;14.91;100.00
72896;BME280;61036;53.224;6.554;2022-08-19T04:19:05;101371.47;;;14.99;100.00
72896;BME280;61036;53.224;6.554;2022-08-19T04:21:32;101367.53;;;14.92;100.00
72896;BME280;61036;53.224;6.554;2022-08-19T04:23:59;101372.13;;;14.91;100.00
72896;BME280;61036;53.224;6.554;2022-08-19T04:26:28;101377.81;;;14.88;100.00
72896;BME280;61036;53.224;6.554;2022-08-19T04:28:54;101371.78;;;14.84;100.00
72896;BME280;61036;53.224;6.554;2022-08-19T04:31:25;101376.34;;;14.84;100.00
72896;BME280;61036;53.224;6.554;2022-08-19T04:34:00;101388.34;;;14.81;100.00
72896;BME280;61036;53.224;6.554;2022-08-19T04:36:32;101377.06;;;14.86;100.00
72896;BME280;61036;53.224;6.554;2022-08-19T04:39:01;101379.03;;;14.95;100.00
72896;BME280;61036;53.224;6.554;2022-08-19T04:41:28;101375.94;;;14.89;100.00
72896;BME280;61036;53.224;6.554;2022-08-19T04:44:13;101384.97;;;14.89;100.00
72896;BME280;61036;53.224;6.554;2022-08-19T04:46:39;101387.81;;;14.88;100.00
72896;BME280;61036;53.224;6.554;2022-08-19T04:49:05;101385.31;;;14.96;100.00
72896;BME280;61036;53.224;6.554;2022-08-19T04:51:33;101381.22;;;15.01;100.00
72896;BME280;61036;53.224;6.554;2022-08-19T04:54:01;101379.22;;;15.03;100.00
72896;BME280;61036;53.224;6.554;2022-08-19T04:56:28;101373.09;;;15.01;100.00
72896;BME280;61036;53.224;6.554;2022-08-19T04:58:55;101379.97;;;15.05;100.00
72896;BME280;61036;53.224;6.554;2022-08-19T05:01:24;101373.59;;;15.16;100.00
72896;BME280;61036;53.224;6.554;2022-08-19T05:03:51;101370.97;;;15.26;100.00
72896;BME280;61036;53.224;6.554;2022-08-19T05:06:22;101369.84;;;15.28;100.00
72896;BME280;61036;53.224;6.554;2022-08-19T05:08:48;101363.16;;;15.32;100.00
72896;BME280;61036;53.224;6.554;2022-08-19T05:11:18;101369.44;;;15.33;100.00
72896;BME280;61036;53.224;6.554;2022-08-19T05:13:46;101374.22;;;15.41;100.00
72896;BME280;61036;53.224;6.554;2022-08-19T05:16:15;101367.38;;;15.46;100.00
72896;BME280;61036;53.224;6.554;2022-08-19T05:18:42;101370.22;;;15.45;100.00
72896;BME280;61036;53.224;6.554;2022-08-19T05:21:27;101369.97;;;15.48;100.00
72896;BME280;61036;53.224;6.554;2022-08-19T05:24:12;101372.72;;;15.58;100.00
72896;BME280;61036;53.224;6.554;2022-08-19T05:26:41;101378.44;;;15.54;100.00
72896;BME280;61036;53.224;6.554;2022-08-19T05:29:08;101378.97;;;15.48;100.00
72896;BME280;61036;53.224;6.554;2022-08-19T05:31:35;101377.72;;;15.52;100.00
72896;BME280;61036;53.224;6.554;2022-08-19T05:34:02;101384.41;;;15.48;100.00
72896;BME280;61036;53.224;6.554;2022-08-19T05:36:34;101371.28;;;15.53;100.00
72896;BME280;61036;53.224;6.554;2022-08-19T05:39:00;101363.66;;;15.68;100.00
72896;BME280;61036;53.224;6.554;2022-08-19T05:41:26;101364.75;;;15.66;100.00
72896;BME280;61036;53.224;6.554;2022-08-19T05:44:02;101353.88;;;15.66;100.00
72896;BME280;61036;53.224;6.554;2022-08-19T05:46:28;101351.13;;;15.77;100.00
72896;BME280;61036;53.224;6.554;2022-08-19T05:48:54;101355.00;;;15.84;100.00
72896;BME280;61036;53.224;6.554;2022-08-19T05:51:24;101349.44;;;15.86;100.00
72896;BME280;61036;53.224;6.554;2022-08-19T05:53:50;101358.22;;;15.99;100.00
72896;BME280;61036;53.224;6.554;2022-08-19T05:56:17;101357.66;;;16.05;100.00
72896;BME280;61036;53.224;6.554;2022-08-19T05:58:44;101362.56;;;16.11;100.00
72896;BME280;61036;53.224;6.554;2022-08-19T06:01:17;101361.41;;;16.14;100.00
72896;BME280;61036;53.224;6.554;2022-08-19T06:03:45;101357.56;;;16.16;100.00
72896;BME280;61036;53.224;6.554;2022-08-19T06:06:13;101367.75;;;16.24;100.00
72896;BME280;61036;53.224;6.554;2022-08-19T06:08:39;101360.03;;;16.29;100.00
72896;BME280;61036;53.224;6.554;2022-08-19T06:14:05;101357.50;;;16.47;100.00
72896;BME280;61036;53.224;6.554;2022-08-19T06:16:35;101344.31;;;16.52;100.00
72896;BME280;61036;53.224;6.554;2022-08-19T06:19:03;101347.63;;;16.65;100.00
72896;BME280;61036;53.224;6.554;2022-08-19T06:21:33;101348.34;;;16.67;100.00
72896;BME280;61036;53.224;6.554;2022-08-19T06:23:59;101351.53;;;16.82;100.00
72896;BME280;61036;53.224;6.554;2022-08-19T06:26:25;101344.81;;;16.77;100.00
72896;BME280;61036;53.224;6.554;2022-08-19T06:28:52;101345.06;;;16.83;100.00
72896;BME280;61036;53.224;6.554;2022-08-19T06:31:23;101350.81;;;16.80;100.00
72896;BME280;61036;53.224;6.554;2022-08-19T06:33:49;101348.53;;;16.95;100.00
72896;BME280;61036;53.224;6.554;2022-08-19T06:36:22;101344.66;;;16.98;100.00
72896;BME280;61036;53.224;6.554;2022-08-19T06:38:53;101342.63;;;17.09;100.00
72896;BME280;61036;53.224;6.554;2022-08-19T06:41:19;101338.75;;;17.22;100.00
72896;BME280;61036;53.224;6.554;2022-08-19T06:43:45;101339.72;;;17.40;100.00
72896;BME280;61036;53.224;6.554;2022-08-19T06:46:14;101341.84;;;17.46;100.00
72896;BME280;61036;53.224;6.554;2022-08-19T06:48:43;101342.06;;;17.72;100.00
72896;BME280;61036;53.224;6.554;2022-08-19T06:51:10;101343.34;;;17.78;100.00
72896;BME280;61036;53.224;6.554;2022-08-19T06:53:35;101341.56;;;17.87;100.00
72896;BME280;61036;53.224;6.554;2022-08-19T06:56:02;101345.53;;;18.02;100.00
72896;BME280;61036;53.224;6.554;2022-08-19T06:58:31;101341.75;;;18.13;100.00
72896;BME280;61036;53.224;6.554;2022-08-19T07:01:02;101347.63;;;18.18;100.00
72896;BME280;61036;53.224;6.554;2022-08-19T07:03:30;101347.78;;;18.34;100.00
72896;BME280;61036;53.224;6.554;2022-08-19T07:06:02;101351.97;;;18.38;100.00
72896;BME280;61036;53.224;6.554;2022-08-19T07:08:29;101352.03;;;18.46;100.00
72896;BME280;61036;53.224;6.554;2022-08-19T07:10:54;101345.69;;;18.73;100.00
72896;BME280;61036;53.224;6.554;2022-08-19T07:13:24;101352.31;;;18.89;100.00
72896;BME280;61036;53.224;6.554;2022-08-19T07:15:50;101355.66;;;19.01;100.00
72896;BME280;61036;53.224;6.554;2022-08-19T07:18:18;101354.41;;;19.13;100.00
72896;BME280;61036;53.224;6.554;2022-08-19T07:20:45;101355.03;;;19.51;100.00
72896;BME280;61036;53.224;6.554;2022-08-19T07:23:10;101349.34;;;19.70;100.00
72896;BME280;61036;53.224;6.554;2022-08-19T07:25:37;101346.78;;;20.03;100.00
72896;BME280;61036;53.224;6.554;2022-08-19T07:28:03;101350.47;;;20.20;100.00
72896;BME280;61036;53.224;6.554;2022-08-19T07:30:30;101355.78;;;20.29;100.00
72896;BME280;61036;53.224;6.554;2022-08-19T07:32:56;101356.00;;;20.44;100.00
72896;BME280;61036;53.224;6.554;2022-08-19T07:35:22;101356.28;;;20.67;100.00
72896;BME280;61036;53.224;6.554;2022-08-19T07:37:49;101349.56;;;20.53;100.00
72896;BME280;61036;53.224;6.554;2022-08-19T07:40:16;101348.38;;;20.56;100.00
72896;BME280;61036;53.224;6.554;2022-08-19T07:42:42;101353.03;;;20.96;100.00
72896;BME280;61036;53.224;6.554;2022-08-19T07:45:08;101344.09;;;21.68;100.00
72896;BME280;61036;53.224;6.554;2022-08-19T07:47:38;101340.47;;;21.76;100.00
72896;BME280;61036;53.224;6.554;2022-08-19T07:50:08;101347.88;;;21.59;100.00
72896;BME280;61036;53.224;6.554;2022-08-19T07:52:36;101339.84;;;21.41;100.00
72896;BME280;61036;53.224;6.554;2022-08-19T07:55:05;101343.44;;;21.58;100.00
72896;BME280;61036;53.224;6.554;2022-08-19T07:57:31;101353.53;;;21.65;100.00
72896;BME280;61036;53.224;6.554;2022-08-19T07:59:57;101351.09;;;21.79;100.00
72896;BME280;61036;53.224;6.554;2022-08-19T08:02:22;101352.84;;;22.11;100.00
72896;BME280;61036;53.224;6.554;2022-08-19T08:04:53;101355.72;;;22.34;100.00
72896;BME280;61036;53.224;6.554;2022-08-19T08:07:38;101347.31;;;22.35;100.00
72896;BME280;61036;53.224;6.554;2022-08-19T08:10:23;101355.75;;;22.80;100.00
72896;BME280;61036;53.224;6.554;2022-08-19T08:12:50;101356.94;;;22.63;100.00
72896;BME280;61036;53.224;6.554;2022-08-19T08:15:16;101362.31;;;22.79;98.12
72896;BME280;61036;53.224;6.554;2022-08-19T08:17:44;101362.72;;;22.99;98.05
72896;BME280;61036;53.224;6.554;2022-08-19T08:20:11;101367.81;;;22.79;96.86
72896;BME280;61036;53.224;6.554;2022-08-19T08:22:37;101366.91;;;23.70;95.21
72896;BME280;61036;53.224;6.554;2022-08-19T08:25:26;101376.78;;;24.09;90.99
72896;BME280;61036;53.224;6.554;2022-08-19T08:27:52;101371.47;;;23.93;85.88
72896;BME280;61036;53.224;6.554;2022-08-19T08:30:21;101371.09;;;24.26;84.96
72896;BME280;61036;53.224;6.554;2022-08-19T08:32:50;101377.63;;;24.76;78.38
72896;BME280;61036;53.224;6.554;2022-08-19T08:35:18;101378.59;;;25.54;73.71
72896;BME280;61036;53.224;6.554;2022-08-19T08:37:48;101377.44;;;26.87;67.10
72896;BME280;61036;53.224;6.554;2022-08-19T08:43:07;101370.66;;;28.55;59.88
72896;BME280;61036;53.224;6.554;2022-08-19T08:45:41;101383.78;;;29.43;56.95
72896;BME280;61036;53.224;6.554;2022-08-19T08:48:20;101376.63;;;29.78;54.97
72896;BME280;61036;53.224;6.554;2022-08-19T08:50:48;101379.75;;;31.34;50.05
72896;BME280;61036;53.224;6.554;2022-08-19T08:53:18;101388.41;;;31.14;49.94
72896;BME280;61036;53.224;6.554;2022-08-19T08:55:45;101387.53;;;31.02;50.53
72896;BME280;61036;53.224;6.554;2022-08-19T08:58:17;101378.47;;;31.96;48.33
72896;BME280;61036;53.224;6.554;2022-08-19T09:00:47;101373.50;;;34.30;41.29
72896;BME280;61036;53.224;6.554;2022-08-19T09:03:20;101376.03;;;36.78;34.45
72896;BME280;61036;53.224;6.554;2022-08-19T09:06:14;101372.16;;;35.73;36.29
72896;BME280;61036;53.224;6.554;2022-08-19T09:09:04;101381.47;;;33.15;39.73
72896;BME280;61036;53.224;6.554;2022-08-19T09:12:05;101378.63;;;33.10;41.38
72896;BME280;61036;53.224;6.554;2022-08-19T09:14:57;101378.00;;;33.92;38.34
72896;BME280;61036;53.224;6.554;2022-08-19T09:17:28;101377.19;;;33.41;40.11
72896;BME280;61036;53.224;6.554;2022-08-19T09:20:18;101375.28;;;35.45;35.61
72896;BME280;61036;53.224;6.554;2022-08-19T09:22:45;101383.88;;;33.07;40.72
72896;BME280;61036;53.224;6.554;2022-08-19T09:25:17;101387.72;;;32.48;41.71
72896;BME280;61036;53.224;6.554;2022-08-19T09:27:43;101379.22;;;34.19;37.13
72896;BME280;61036;53.224;6.554;2022-08-19T09:30:20;101374.59;;;33.90;38.61
72896;BME280;61036;53.224;6.554;2022-08-19T09:32:47;101372.59;;;34.03;38.86
72896;BME280;61036;53.224;6.554;2022-08-19T09:35:14;101368.75;;;33.92;39.72
72896;BME280;61036;53.224;6.554;2022-08-19T09:37:42;101372.72;;;36.18;33.66
72896;BME280;61036;53.224;6.554;2022-08-19T09:40:09;101373.66;;;36.49;32.32
72896;BME280;61036;53.224;6.554;2022-08-19T09:42:35;101386.47;;;37.90;29.63
72896;BME280;61036;53.224;6.554;2022-08-19T09:45:02;101376.06;;;37.90;29.29
72896;BME280;61036;53.224;6.554;2022-08-19T09:47:29;101375.38;;;35.23;34.42
72896;BME280;61036;53.224;6.554;2022-08-19T09:49:55;101376.25;;;36.61;31.62
72896;BME280;61036;53.224;6.554;2022-08-19T09:52:21;101377.34;;;35.55;31.26
72896;BME280;61036;53.224;6.554;2022-08-19T09:54:46;101375.63;;;34.23;35.18
72896;BME280;61036;53.224;6.554;2022-08-19T09:57:13;101382.19;;;30.70;46.40
72896;BME280;61036;53.224;6.554;2022-08-19T09:59:39;101376.66;;;30.52;45.44
72896;BME280;61036;53.224;6.554;2022-08-19T10:02:05;101377.88;;;30.56;45.88
72896;BME280;61036;53.224;6.554;2022-08-19T10:04:31;101370.94;;;31.73;41.82
72896;BME280;61036;53.224;6.554;2022-08-19T10:07:15;101369.91;;;32.38;41.16
72896;BME280;61036;53.224;6.554;2022-08-19T10:09:42;101370.59;;;31.93;42.69
72896;BME280;61036;53.224;6.554;2022-08-19T10:12:08;101367.53;;;31.59;41.85
72896;BME280;61036;53.224;6.554;2022-08-19T10:14:37;101374.03;;;31.29;43.42
72896;BME280;61036;53.224;6.554;2022-08-19T10:17:04;101377.28;;;31.14;43.20
72896;BME280;61036;53.224;6.554;2022-08-19T10:19:29;101375.03;;;30.63;43.47
72896;BME280;61036;53.224;6.554;2022-08-19T10:22:05;101372.38;;;29.76;48.69
72896;BME280;61036;53.224;6.554;2022-08-19T10:24:33;101371.50;;;28.93;49.43
72896;BME280;61036;53.224;6.554;2022-08-19T10:27:00;101374.16;;;28.30;53.21
72896;BME280;61036;53.224;6.554;2022-08-19T10:29:30;101370.66;;;27.96;52.27
72896;BME280;61036;53.224;6.554;2022-08-19T10:31:58;101371.97;;;27.54;57.52
72896;BME280;61036;53.224;6.554;2022-08-19T10:34:25;101369.41;;;27.39;57.29
72896;BME280;61036;53.224;6.554;2022-08-19T10:36:57;101375.81;;;27.86;57.24
72896;BME280;61036;53.224;6.554;2022-08-19T10:39:23;101380.25;;;27.74;55.96
72896;BME280;61036;53.224;6.554;2022-08-19T10:41:51;101374.72;;;27.67;56.69
72896;BME280;61036;53.224;6.554;2022-08-19T10:44:20;101365.59;;;27.27;59.71
72896;BME280;61036;53.224;6.554;2022-08-19T10:46:46;101366.38;;;27.07;60.94
72896;BME280;61036;53.224;6.554;2022-08-19T10:49:13;101370.91;;;27.22;61.02
72896;BME280;61036;53.224;6.554;2022-08-19T10:51:42;101364.31;;;27.29;57.75
72896;BME280;61036;53.224;6.554;2022-08-19T10:54:27;101359.63;;;27.30;60.29
72896;BME280;61036;53.224;6.554;2022-08-19T10:57:13;101360.84;;;26.94;60.47
72896;BME280;61036;53.224;6.554;2022-08-19T10:59:40;101350.88;;;27.53;56.18
72896;BME280;61036;53.224;6.554;2022-08-19T11:02:08;101357.69;;;27.50;55.79
72896;BME280;61036;53.224;6.554;2022-08-19T11:04:36;101355.56;;;27.32;56.96
72896;BME280;61036;53.224;6.554;2022-08-19T11:07:03;101359.19;;;27.46;57.36
72896;BME280;61036;53.224;6.554;2022-08-19T11:09:30;101350.63;;;27.74;58.62
72896;BME280;61036;53.224;6.554;2022-08-19T11:11:55;101345.50;;;27.65;58.25
72896;BME280;61036;53.224;6.554;2022-08-19T11:14:23;101347.03;;;27.27;61.73
72896;BME280;61036;53.224;6.554;2022-08-19T11:16:51;101350.00;;;27.66;57.38
72896;BME280;61036;53.224;6.554;2022-08-19T11:19:17;101354.25;;;27.62;55.49
72896;BME280;61036;53.224;6.554;2022-08-19T11:21:52;101348.97;;;27.53;59.29
72896;BME280;61036;53.224;6.554;2022-08-19T11:24:24;101355.78;;;27.18;57.73
72896;BME280;61036;53.224;6.554;2022-08-19T11:26:54;101352.72;;;26.92;59.18
72896;BME280;61036;53.224;6.554;2022-08-19T11:29:24;101347.47;;;27.24;60.33
72896;BME280;61036;53.224;6.554;2022-08-19T11:31:51;101340.84;;;27.78;57.19
72896;BME280;61036;53.224;6.554;2022-08-19T11:34:20;101339.56;;;27.81;58.04
72896;BME280;61036;53.224;6.554;2022-08-19T11:36:49;101330.59;;;27.92;57.83
72896;BME280;61036;53.224;6.554;2022-08-19T11:39:18;101345.56;;;27.38;59.54
72896;BME280;61036;53.224;6.554;2022-08-19T11:41:45;101345.97;;;27.48;60.63
72896;BME280;61036;53.224;6.554;2022-08-19T11:44:11;101337.22;;;27.31;58.29
72896;BME280;61036;53.224;6.554;2022-08-19T11:46:40;101342.72;;;26.98;60.64
72896;BME280;61036;53.224;6.554;2022-08-19T11:49:07;101337.00;;;27.06;58.65
72896;BME280;61036;53.224;6.554;2022-08-19T11:51:35;101342.47;;;26.66;59.52
72896;BME280;61036;53.224;6.554;2022-08-19T11:54:04;101346.34;;;26.24;62.85
72896;BME280;61036;53.224;6.554;2022-08-19T11:56:31;101340.19;;;26.29;60.52
72896;BME280;61036;53.224;6.554;2022-08-19T11:58:57;101350.00;;;26.38;61.95
72896;BME280;61036;53.224;6.554;2022-08-19T12:01:24;101350.66;;;25.92;65.26
72896;BME280;61036;53.224;6.554;2022-08-19T12:03:52;101349.31;;;26.29;65.71
72896;BME280;61036;53.224;6.554;2022-08-19T12:06:25;101346.81;;;26.34;64.60
72896;BME280;61036;53.224;6.554;2022-08-19T12:08:55;101343.22;;;26.40;63.57
72896;BME280;61036;53.224;6.554;2022-08-19T12:11:22;101328.84;;;26.65;65.58
72896;BME280;61036;53.224;6.554;2022-08-19T12:13:48;101339.53;;;26.81;59.42
72896;BME280;61036;53.224;6.554;2022-08-19T12:16:19;101340.78;;;26.72;59.87
72896;BME280;61036;53.224;6.554;2022-08-19T12:18:50;101341.63;;;26.73;60.94
72896;BME280;61036;53.224;6.554;2022-08-19T12:21:19;101340.00;;;27.25;60.66
72896;BME280;61036;53.224;6.554;2022-08-19T12:23:49;101340.00;;;27.11;59.82
72896;BME280;61036;53.224;6.554;2022-08-19T12:26:15;101338.47;;;26.82;59.62
72896;BME280;61036;53.224;6.554;2022-08-19T12:28:42;101341.66;;;26.92;61.36
72896;BME280;61036;53.224;6.554;2022-08-19T12:31:09;101336.97;;;26.80;61.97
72896;BME280;61036;53.224;6.554;2022-08-19T12:33:40;101339.66;;;26.53;60.78
72896;BME280;61036;53.224;6.554;2022-08-19T12:36:09;101337.78;;;26.54;62.11
72896;BME280;61036;53.224;6.554;2022-08-19T12:38:38;101338.03;;;26.85;60.50
72896;BME280;61036;53.224;6.554;2022-08-19T12:41:06;101337.78;;;26.60;61.59
72896;BME280;61036;53.224;6.554;2022-08-19T12:43:35;101336.53;;;26.70;62.46
72896;BME280;61036;53.224;6.554;2022-08-19T12:46:06;101331.50;;;27.33;60.08
72896;BME280;61036;53.224;6.554;2022-08-19T12:48:33;101337.84;;;27.47;59.52
72896;BME280;61036;53.224;6.554;2022-08-19T12:50:58;101335.75;;;27.35;56.87
72896;BME280;61036;53.224;6.554;2022-08-19T12:53:24;101337.63;;;26.88;56.88
72896;BME280;61036;53.224;6.554;2022-08-19T12:56:00;101335.31;;;27.05;57.61
72896;BME280;61036;53.224;6.554;2022-08-19T12:58:26;101340.19;;;26.90;58.85